TOH weather

Torres Airstrip
Loh/Linua, Torba, Vanuatu

Public forecast

Using degrees Celsius for public forecast. Weather courtesy of forecast.io.

Closest aviation weather report (METAR) to Torres Airstrip

Closest report is Sola Airport, 61.2 nm (113.3 km) ESE. Retrieved 2019/12/13 03:00 UTC (2 hours ago):

NVSC 130300Z 00000KT 9999 BKN020 30/23 Q1008

Closest aviation forecast (TAF) to Torres Airstrip

Closest forecast is Sola Airport, 61.2 nm (113.3 km) ESE. Retrieved 2019-12-13 00:17 UTC (5 hours ago):

TAF NVSC 122220Z 1300/1324 VRB02KT 9999 FEW020 PROB40 INTER 1300/1306 8000 SHRA BKN018 OVC035